sensor_id;sensor_type;location;lat;lon;timestamp;P1;durP1;ratioP1;P2;durP2;ratioP2
23129;SDS011;11734;51.046;13.778;2024-01-16T00:01:16;2.27;;;1.70;;
23129;SDS011;11734;51.046;13.778;2024-01-16T00:03:44;3.63;;;1.90;;
23129;SDS011;11734;51.046;13.778;2024-01-16T00:06:12;4.80;;;2.00;;
23129;SDS011;11734;51.046;13.778;2024-01-16T00:08:39;4.33;;;2.07;;
23129;SDS011;11734;51.046;13.778;2024-01-16T00:11:07;3.20;;;1.80;;
23129;SDS011;11734;51.046;13.778;2024-01-16T00:13:34;2.57;;;1.80;;
23129;SDS011;11734;51.046;13.778;2024-01-16T00:16:02;6.10;;;1.90;;
23129;SDS011;11734;51.046;13.778;2024-01-16T00:18:32;4.13;;;1.93;;
23129;SDS011;11734;51.046;13.778;2024-01-16T00:21:00;3.03;;;1.90;;
23129;SDS011;11734;51.046;13.778;2024-01-16T00:23:31;3.43;;;1.83;;
23129;SDS011;11734;51.046;13.778;2024-01-16T00:25:59;4.03;;;1.97;;
23129;SDS011;11734;51.046;13.778;2024-01-16T00:28:26;5.00;;;2.00;;
23129;SDS011;11734;51.046;13.778;2024-01-16T00:30:54;3.80;;;2.00;;
23129;SDS011;11734;51.046;13.778;2024-01-16T00:33:21;4.03;;;1.80;;
23129;SDS011;11734;51.046;13.778;2024-01-16T00:35:48;3.93;;;2.20;;
23129;SDS011;11734;51.046;13.778;2024-01-16T00:38:16;3.57;;;2.50;;
23129;SDS011;11734;51.046;13.778;2024-01-16T00:40:43;3.77;;;2.23;;
23129;SDS011;11734;51.046;13.778;2024-01-16T00:43:11;5.17;;;2.70;;
23129;SDS011;11734;51.046;13.778;2024-01-16T00:45:39;3.77;;;2.77;;
23129;SDS011;11734;51.046;13.778;2024-01-16T00:48:07;6.47;;;3.00;;
23129;SDS011;11734;51.046;13.778;2024-01-16T00:50:37;5.73;;;2.73;;
23129;SDS011;11734;51.046;13.778;2024-01-16T00:53:04;5.80;;;2.73;;
23129;SDS011;11734;51.046;13.778;2024-01-16T00:55:31;6.03;;;2.90;;
23129;SDS011;11734;51.046;13.778;2024-01-16T00:57:59;5.37;;;2.30;;
23129;SDS011;11734;51.046;13.778;2024-01-16T01:00:27;5.67;;;2.30;;
23129;SDS011;11734;51.046;13.778;2024-01-16T01:02:57;4.53;;;2.70;;
23129;SDS011;11734;51.046;13.778;2024-01-16T01:05:27;5.70;;;2.50;;
23129;SDS011;11734;51.046;13.778;2024-01-16T01:07:55;5.10;;;2.87;;
23129;SDS011;11734;51.046;13.778;2024-01-16T01:10:23;2.50;;;2.30;;
23129;SDS011;11734;51.046;13.778;2024-01-16T01:12:50;5.47;;;2.60;;
23129;SDS011;11734;51.046;13.778;2024-01-16T01:15:20;4.37;;;2.80;;
23129;SDS011;11734;51.046;13.778;2024-01-16T01:17:51;8.40;;;3.03;;
23129;SDS011;11734;51.046;13.778;2024-01-16T01:20:20;4.13;;;2.70;;
23129;SDS011;11734;51.046;13.778;2024-01-16T01:22:48;4.33;;;2.60;;
23129;SDS011;11734;51.046;13.778;2024-01-16T01:25:15;3.10;;;2.37;;
23129;SDS011;11734;51.046;13.778;2024-01-16T01:27:42;3.90;;;2.77;;
23129;SDS011;11734;51.046;13.778;2024-01-16T01:30:10;6.00;;;3.20;;
23129;SDS011;11734;51.046;13.778;2024-01-16T01:32:38;5.27;;;2.73;;
23129;SDS011;11734;51.046;13.778;2024-01-16T01:35:06;5.37;;;2.77;;
23129;SDS011;11734;51.046;13.778;2024-01-16T01:37:35;3.83;;;2.90;;
23129;SDS011;11734;51.046;13.778;2024-01-16T01:40:02;5.00;;;3.00;;
23129;SDS011;11734;51.046;13.778;2024-01-16T01:42:30;5.23;;;2.70;;
23129;SDS011;11734;51.046;13.778;2024-01-16T01:44:57;4.00;;;2.87;;
23129;SDS011;11734;51.046;13.778;2024-01-16T01:47:24;4.53;;;2.63;;
23129;SDS011;11734;51.046;13.778;2024-01-16T01:49:52;4.97;;;2.90;;
23129;SDS011;11734;51.046;13.778;2024-01-16T01:52:20;4.33;;;2.53;;
23129;SDS011;11734;51.046;13.778;2024-01-16T01:54:47;3.83;;;3.10;;
23129;SDS011;11734;51.046;13.778;2024-01-16T01:57:15;4.53;;;2.90;;
23129;SDS011;11734;51.046;13.778;2024-01-16T01:59:42;4.83;;;3.10;;
23129;SDS011;11734;51.046;13.778;2024-01-16T02:02:10;5.50;;;3.00;;
23129;SDS011;11734;51.046;13.778;2024-01-16T02:04:38;4.37;;;3.10;;
23129;SDS011;11734;51.046;13.778;2024-01-16T02:07:05;5.13;;;2.93;;
23129;SDS011;11734;51.046;13.778;2024-01-16T02:09:33;6.33;;;2.77;;
23129;SDS011;11734;51.046;13.778;2024-01-16T02:12:00;5.23;;;3.73;;
23129;SDS011;11734;51.046;13.778;2024-01-16T02:14:27;4.10;;;2.73;;
23129;SDS011;11734;51.046;13.778;2024-01-16T02:16:55;4.63;;;2.70;;
23129;SDS011;11734;51.046;13.778;2024-01-16T02:19:22;4.27;;;2.63;;
23129;SDS011;11734;51.046;13.778;2024-01-16T02:21:53;4.43;;;2.40;;
23129;SDS011;11734;51.046;13.778;2024-01-16T02:24:22;3.60;;;2.80;;
23129;SDS011;11734;51.046;13.778;2024-01-16T02:26:49;4.93;;;2.70;;
23129;SDS011;11734;51.046;13.778;2024-01-16T02:29:16;3.70;;;2.27;;
23129;SDS011;11734;51.046;13.778;2024-01-16T02:31:44;3.90;;;2.80;;
23129;SDS011;11734;51.046;13.778;2024-01-16T02:34:12;4.37;;;2.70;;
23129;SDS011;11734;51.046;13.778;2024-01-16T02:36:39;2.93;;;2.40;;
23129;SDS011;11734;51.046;13.778;2024-01-16T02:39:07;4.13;;;2.70;;
23129;SDS011;11734;51.046;13.778;2024-01-16T02:41:34;4.27;;;2.70;;
23129;SDS011;11734;51.046;13.778;2024-01-16T02:44:02;3.60;;;2.23;;
23129;SDS011;11734;51.046;13.778;2024-01-16T02:46:29;3.47;;;2.40;;
23129;SDS011;11734;51.046;13.778;2024-01-16T02:48:57;6.23;;;2.80;;
23129;SDS011;11734;51.046;13.778;2024-01-16T02:51:25;6.40;;;3.07;;
23129;SDS011;11734;51.046;13.778;2024-01-16T02:53:52;3.47;;;2.47;;
23129;SDS011;11734;51.046;13.778;2024-01-16T02:56:20;4.17;;;2.67;;
23129;SDS011;11734;51.046;13.778;2024-01-16T02:58:47;3.50;;;2.17;;
23129;SDS011;11734;51.046;13.778;2024-01-16T03:01:15;4.33;;;2.60;;
23129;SDS011;11734;51.046;13.778;2024-01-16T03:03:42;2.87;;;2.57;;
23129;SDS011;11734;51.046;13.778;2024-01-16T03:06:20;4.43;;;2.70;;
23129;SDS011;11734;51.046;13.778;2024-01-16T03:08:48;4.00;;;2.33;;
23129;SDS011;11734;51.046;13.778;2024-01-16T03:11:16;4.40;;;2.40;;
23129;SDS011;11734;51.046;13.778;2024-01-16T03:13:43;3.80;;;2.53;;
23129;SDS011;11734;51.046;13.778;2024-01-16T03:16:11;3.30;;;2.27;;
23129;SDS011;11734;51.046;13.778;2024-01-16T03:18:38;4.17;;;2.30;;
23129;SDS011;11734;51.046;13.778;2024-01-16T03:21:06;3.03;;;2.10;;
23129;SDS011;11734;51.046;13.778;2024-01-16T03:23:34;4.53;;;1.87;;
23129;SDS011;11734;51.046;13.778;2024-01-16T03:26:01;4.17;;;2.00;;
23129;SDS011;11734;51.046;13.778;2024-01-16T03:28:30;2.90;;;1.80;;
23129;SDS011;11734;51.046;13.778;2024-01-16T03:30:57;3.73;;;1.90;;
23129;SDS011;11734;51.046;13.778;2024-01-16T03:33:25;2.57;;;1.77;;
23129;SDS011;11734;51.046;13.778;2024-01-16T03:35:52;3.13;;;2.00;;
23129;SDS011;11734;51.046;13.778;2024-01-16T03:38:19;4.50;;;1.87;;
23129;SDS011;11734;51.046;13.778;2024-01-16T03:40:47;2.27;;;2.00;;
23129;SDS011;11734;51.046;13.778;2024-01-16T03:43:14;5.23;;;2.00;;
23129;SDS011;11734;51.046;13.778;2024-01-16T03:45:41;3.50;;;1.80;;
23129;SDS011;11734;51.046;13.778;2024-01-16T03:48:10;2.80;;;1.80;;
23129;SDS011;11734;51.046;13.778;2024-01-16T03:50:37;3.00;;;1.97;;
23129;SDS011;11734;51.046;13.778;2024-01-16T03:53:06;3.93;;;2.27;;
23129;SDS011;11734;51.046;13.778;2024-01-16T03:55:33;8.30;;;2.53;;
23129;SDS011;11734;51.046;13.778;2024-01-16T03:58:01;4.23;;;2.17;;
23129;SDS011;11734;51.046;13.778;2024-01-16T04:00:28;3.87;;;2.43;;
23129;SDS011;11734;51.046;13.778;2024-01-16T04:02:55;6.43;;;2.57;;
23129;SDS011;11734;51.046;13.778;2024-01-16T04:05:23;3.67;;;2.17;;
23129;SDS011;11734;51.046;13.778;2024-01-16T04:07:51;3.90;;;2.30;;
23129;SDS011;11734;51.046;13.778;2024-01-16T04:10:18;3.27;;;2.27;;
23129;SDS011;11734;51.046;13.778;2024-01-16T04:12:46;4.33;;;2.33;;
23129;SDS011;11734;51.046;13.778;2024-01-16T04:15:13;3.67;;;2.20;;
23129;SDS011;11734;51.046;13.778;2024-01-16T04:17:40;4.13;;;1.93;;
23129;SDS011;11734;51.046;13.778;2024-01-16T04:20:08;3.83;;;2.80;;
23129;SDS011;11734;51.046;13.778;2024-01-16T04:22:36;4.27;;;2.30;;
23129;SDS011;11734;51.046;13.778;2024-01-16T04:25:04;3.27;;;2.43;;
23129;SDS011;11734;51.046;13.778;2024-01-16T04:27:31;3.33;;;2.73;;
23129;SDS011;11734;51.046;13.778;2024-01-16T04:29:59;3.37;;;2.40;;
23129;SDS011;11734;51.046;13.778;2024-01-16T04:32:26;3.53;;;2.53;;
23129;SDS011;11734;51.046;13.778;2024-01-16T04:34:54;4.47;;;2.50;;
23129;SDS011;11734;51.046;13.778;2024-01-16T04:37:21;3.67;;;2.47;;
23129;SDS011;11734;51.046;13.778;2024-01-16T04:39:48;6.23;;;3.17;;
23129;SDS011;11734;51.046;13.778;2024-01-16T04:42:16;5.23;;;2.90;;
23129;SDS011;11734;51.046;13.778;2024-01-16T04:44:44;3.50;;;2.87;;
23129;SDS011;11734;51.046;13.778;2024-01-16T04:47:11;5.30;;;2.70;;
23129;SDS011;11734;51.046;13.778;2024-01-16T04:49:40;5.67;;;3.37;;
23129;SDS011;11734;51.046;13.778;2024-01-16T04:52:07;3.70;;;2.53;;
23129;SDS011;11734;51.046;13.778;2024-01-16T04:54:34;4.53;;;2.40;;
23129;SDS011;11734;51.046;13.778;2024-01-16T04:57:01;5.37;;;2.57;;
23129;SDS011;11734;51.046;13.778;2024-01-16T04:59:29;3.47;;;2.67;;
23129;SDS011;11734;51.046;13.778;2024-01-16T05:01:57;4.47;;;2.73;;
23129;SDS011;11734;51.046;13.778;2024-01-16T05:04:24;6.63;;;3.10;;
23129;SDS011;11734;51.046;13.778;2024-01-16T05:06:51;4.20;;;2.90;;
23129;SDS011;11734;51.046;13.778;2024-01-16T05:09:19;3.70;;;2.40;;
23129;SDS011;11734;51.046;13.778;2024-01-16T05:11:46;6.27;;;2.67;;
23129;SDS011;11734;51.046;13.778;2024-01-16T05:14:13;2.53;;;2.20;;
23129;SDS011;11734;51.046;13.778;2024-01-16T05:16:41;5.00;;;2.67;;
23129;SDS011;11734;51.046;13.778;2024-01-16T05:19:08;7.30;;;2.20;;
23129;SDS011;11734;51.046;13.778;2024-01-16T05:21:35;4.47;;;2.57;;
23129;SDS011;11734;51.046;13.778;2024-01-16T05:24:03;5.17;;;2.53;;
23129;SDS011;11734;51.046;13.778;2024-01-16T05:26:32;4.07;;;2.70;;
23129;SDS011;11734;51.046;13.778;2024-01-16T05:28:59;6.93;;;2.23;;
23129;SDS011;11734;51.046;13.778;2024-01-16T05:31:26;6.87;;;2.53;;
23129;SDS011;11734;51.046;13.778;2024-01-16T05:33:54;7.10;;;2.53;;
23129;SDS011;11734;51.046;13.778;2024-01-16T05:36:21;7.57;;;2.43;;
23129;SDS011;11734;51.046;13.778;2024-01-16T05:38:49;5.00;;;2.27;;
23129;SDS011;11734;51.046;13.778;2024-01-16T05:41:17;4.27;;;2.00;;
23129;SDS011;11734;51.046;13.778;2024-01-16T05:43:44;4.67;;;2.50;;
23129;SDS011;11734;51.046;13.778;2024-01-16T05:46:11;5.37;;;2.23;;
23129;SDS011;11734;51.046;13.778;2024-01-16T05:48:39;5.30;;;2.27;;
23129;SDS011;11734;51.046;13.778;2024-01-16T05:51:06;3.90;;;1.97;;
23129;SDS011;11734;51.046;13.778;2024-01-16T05:53:33;4.13;;;1.97;;
23129;SDS011;11734;51.046;13.778;2024-01-16T05:56:01;3.77;;;2.20;;
23129;SDS011;11734;51.046;13.778;2024-01-16T05:58:28;3.57;;;2.30;;
23129;SDS011;11734;51.046;13.778;2024-01-16T06:00:55;3.67;;;2.00;;
23129;SDS011;11734;51.046;13.778;2024-01-16T06:03:23;5.47;;;2.47;;
23129;SDS011;11734;51.046;13.778;2024-01-16T06:05:50;4.13;;;2.33;;
23129;SDS011;11734;51.046;13.778;2024-01-16T06:08:17;4.90;;;2.30;;
23129;SDS011;11734;51.046;13.778;2024-01-16T06:10:45;4.23;;;2.53;;
23129;SDS011;11734;51.046;13.778;2024-01-16T06:13:12;3.30;;;2.80;;
23129;SDS011;11734;51.046;13.778;2024-01-16T06:15:40;6.00;;;2.80;;
23129;SDS011;11734;51.046;13.778;2024-01-16T06:18:07;2.57;;;2.00;;
23129;SDS011;11734;51.046;13.778;2024-01-16T06:20:35;4.30;;;3.30;;
23129;SDS011;11734;51.046;13.778;2024-01-16T06:23:02;4.67;;;2.90;;
23129;SDS011;11734;51.046;13.778;2024-01-16T06:25:30;5.30;;;3.60;;
23129;SDS011;11734;51.046;13.778;2024-01-16T06:27:57;4.67;;;3.43;;
23129;SDS011;11734;51.046;13.778;2024-01-16T06:30:29;4.97;;;3.03;;
23129;SDS011;11734;51.046;13.778;2024-01-16T06:32:56;5.10;;;3.43;;
23129;SDS011;11734;51.046;13.778;2024-01-16T06:35:24;4.63;;;3.20;;
23129;SDS011;11734;51.046;13.778;2024-01-16T06:37:51;4.10;;;3.23;;
23129;SDS011;11734;51.046;13.778;2024-01-16T06:40:18;5.17;;;3.00;;
23129;SDS011;11734;51.046;13.778;2024-01-16T06:42:47;5.37;;;3.73;;
23129;SDS011;11734;51.046;13.778;2024-01-16T06:45:14;6.03;;;3.50;;
23129;SDS011;11734;51.046;13.778;2024-01-16T06:47:42;4.83;;;3.03;;
23129;SDS011;11734;51.046;13.778;2024-01-16T06:50:09;3.50;;;3.20;;
23129;SDS011;11734;51.046;13.778;2024-01-16T06:52:37;4.80;;;3.50;;
23129;SDS011;11734;51.046;13.778;2024-01-16T06:55:04;4.23;;;2.90;;
23129;SDS011;11734;51.046;13.778;2024-01-16T06:57:31;4.40;;;3.17;;
23129;SDS011;11734;51.046;13.778;2024-01-16T06:59:59;6.77;;;2.93;;
23129;SDS011;11734;51.046;13.778;2024-01-16T07:02:26;4.93;;;3.27;;
23129;SDS011;11734;51.046;13.778;2024-01-16T07:04:53;4.87;;;3.07;;
23129;SDS011;11734;51.046;13.778;2024-01-16T07:07:24;4.90;;;3.03;;
23129;SDS011;11734;51.046;13.778;2024-01-16T07:09:52;3.63;;;3.03;;
23129;SDS011;11734;51.046;13.778;2024-01-16T07:12:19;2.83;;;2.60;;
23129;SDS011;11734;51.046;13.778;2024-01-16T07:14:46;4.93;;;3.13;;
23129;SDS011;11734;51.046;13.778;2024-01-16T07:17:14;5.17;;;3.27;;
23129;SDS011;11734;51.046;13.778;2024-01-16T07:19:41;5.80;;;3.10;;
23129;SDS011;11734;51.046;13.778;2024-01-16T07:22:08;4.57;;;2.87;;
23129;SDS011;11734;51.046;13.778;2024-01-16T07:24:36;4.70;;;2.97;;
23129;SDS011;11734;51.046;13.778;2024-01-16T07:27:03;4.33;;;2.97;;
23129;SDS011;11734;51.046;13.778;2024-01-16T07:29:31;6.93;;;3.30;;
23129;SDS011;11734;51.046;13.778;2024-01-16T07:31:58;5.60;;;2.90;;
23129;SDS011;11734;51.046;13.778;2024-01-16T07:34:25;5.70;;;2.93;;
23129;SDS011;11734;51.046;13.778;2024-01-16T07:36:53;4.30;;;2.90;;
23129;SDS011;11734;51.046;13.778;2024-01-16T07:39:21;4.70;;;2.50;;
23129;SDS011;11734;51.046;13.778;2024-01-16T07:41:49;3.80;;;2.73;;
23129;SDS011;11734;51.046;13.778;2024-01-16T07:44:16;4.47;;;2.43;;
23129;SDS011;11734;51.046;13.778;2024-01-16T07:46:44;5.13;;;2.50;;
23129;SDS011;11734;51.046;13.778;2024-01-16T07:49:11;5.37;;;2.67;;
23129;SDS011;11734;51.046;13.778;2024-01-16T07:51:38;5.13;;;2.43;;
23129;SDS011;11734;51.046;13.778;2024-01-16T07:54:07;5.73;;;2.40;;
23129;SDS011;11734;51.046;13.778;2024-01-16T07:56:34;3.50;;;2.33;;
23129;SDS011;11734;51.046;13.778;2024-01-16T07:59:02;4.83;;;2.37;;
23129;SDS011;11734;51.046;13.778;2024-01-16T08:01:30;5.50;;;2.57;;
23129;SDS011;11734;51.046;13.778;2024-01-16T08:03:57;4.07;;;2.30;;
23129;SDS011;11734;51.046;13.778;2024-01-16T08:06:25;4.27;;;2.07;;
23129;SDS011;11734;51.046;13.778;2024-01-16T08:08:52;3.87;;;2.40;;
23129;SDS011;11734;51.046;13.778;2024-01-16T08:11:24;5.83;;;2.40;;
23129;SDS011;11734;51.046;13.778;2024-01-16T08:13:52;5.40;;;2.50;;
23129;SDS011;11734;51.046;13.778;2024-01-16T08:16:19;4.10;;;2.30;;
23129;SDS011;11734;51.046;13.778;2024-01-16T08:18:47;5.33;;;2.60;;
23129;SDS011;11734;51.046;13.778;2024-01-16T08:21:14;4.03;;;2.37;;
23129;SDS011;11734;51.046;13.778;2024-01-16T08:23:42;3.70;;;2.17;;
23129;SDS011;11734;51.046;13.778;2024-01-16T08:26:10;6.37;;;2.57;;
23129;SDS011;11734;51.046;13.778;2024-01-16T08:28:37;4.03;;;2.53;;
23129;SDS011;11734;51.046;13.778;2024-01-16T08:31:05;4.30;;;2.40;;
23129;SDS011;11734;51.046;13.778;2024-01-16T08:33:32;5.90;;;2.70;;
23129;SDS011;11734;51.046;13.778;2024-01-16T08:36:11;4.10;;;2.20;;
23129;SDS011;11734;51.046;13.778;2024-01-16T08:38:39;4.10;;;2.47;;
23129;SDS011;11734;51.046;13.778;2024-01-16T08:41:07;6.83;;;2.40;;
23129;SDS011;11734;51.046;13.778;2024-01-16T08:43:35;4.83;;;2.40;;
23129;SDS011;11734;51.046;13.778;2024-01-16T08:46:03;5.37;;;2.60;;
23129;SDS011;11734;51.046;13.778;2024-01-16T08:48:30;4.37;;;2.57;;
23129;SDS011;11734;51.046;13.778;2024-01-16T08:50:58;4.97;;;2.40;;
23129;SDS011;11734;51.046;13.778;2024-01-16T08:53:27;3.23;;;2.40;;
23129;SDS011;11734;51.046;13.778;2024-01-16T08:55:55;4.70;;;2.80;;
23129;SDS011;11734;51.046;13.778;2024-01-16T08:58:22;7.67;;;3.27;;
23129;SDS011;11734;51.046;13.778;2024-01-16T09:00:49;4.93;;;3.03;;
23129;SDS011;11734;51.046;13.778;2024-01-16T09:03:17;8.47;;;2.90;;
23129;SDS011;11734;51.046;13.778;2024-01-16T09:05:44;5.93;;;2.50;;
23129;SDS011;11734;51.046;13.778;2024-01-16T09:08:12;4.30;;;2.40;;
23129;SDS011;11734;51.046;13.778;2024-01-16T09:10:39;5.00;;;2.53;;
23129;SDS011;11734;51.046;13.778;2024-01-16T09:13:07;4.73;;;2.70;;
23129;SDS011;11734;51.046;13.778;2024-01-16T09:15:34;6.43;;;2.63;;
23129;SDS011;11734;51.046;13.778;2024-01-16T09:18:02;5.07;;;2.80;;
23129;SDS011;11734;51.046;13.778;2024-01-16T09:20:29;4.60;;;2.57;;
23129;SDS011;11734;51.046;13.778;2024-01-16T09:22:57;6.97;;;2.83;;
23129;SDS011;11734;51.046;13.778;2024-01-16T09:25:24;5.63;;;2.77;;
23129;SDS011;11734;51.046;13.778;2024-01-16T09:27:53;4.43;;;2.70;;
23129;SDS011;11734;51.046;13.778;2024-01-16T09:30:20;5.63;;;3.20;;
23129;SDS011;11734;51.046;13.778;2024-01-16T09:32:49;4.57;;;2.90;;
23129;SDS011;11734;51.046;13.778;2024-01-16T09:35:16;4.03;;;2.80;;
23129;SDS011;11734;51.046;13.778;2024-01-16T09:37:44;4.07;;;2.77;;
23129;SDS011;11734;51.046;13.778;2024-01-16T09:40:11;4.10;;;2.70;;
23129;SDS011;11734;51.046;13.778;2024-01-16T09:42:40;6.40;;;3.03;;
23129;SDS011;11734;51.046;13.778;2024-01-16T09:45:07;3.83;;;2.57;;
23129;SDS011;11734;51.046;13.778;2024-01-16T09:47:36;5.93;;;3.40;;
23129;SDS011;11734;51.046;13.778;2024-01-16T09:50:04;6.17;;;2.97;;
23129;SDS011;11734;51.046;13.778;2024-01-16T09:52:32;8.60;;;2.80;;
23129;SDS011;11734;51.046;13.778;2024-01-16T09:54:59;3.53;;;2.63;;
23129;SDS011;11734;51.046;13.778;2024-01-16T09:57:26;4.80;;;2.77;;
23129;SDS011;11734;51.046;13.778;2024-01-16T09:59:55;6.53;;;2.70;;
23129;SDS011;11734;51.046;13.778;2024-01-16T10:02:23;4.17;;;2.87;;
23129;SDS011;11734;51.046;13.778;2024-01-16T10:04:51;4.13;;;2.93;;
23129;SDS011;11734;51.046;13.778;2024-01-16T10:07:18;5.47;;;2.80;;
23129;SDS011;11734;51.046;13.778;2024-01-16T10:09:56;6.03;;;2.80;;
23129;SDS011;11734;51.046;13.778;2024-01-16T10:12:24;3.77;;;2.77;;
23129;SDS011;11734;51.046;13.778;2024-01-16T10:14:52;3.83;;;2.90;;
23129;SDS011;11734;51.046;13.778;2024-01-16T10:17:21;7.00;;;3.17;;
23129;SDS011;11734;51.046;13.778;2024-01-16T10:19:49;5.13;;;3.17;;
23129;SDS011;11734;51.046;13.778;2024-01-16T10:22:20;4.63;;;2.83;;
23129;SDS011;11734;51.046;13.778;2024-01-16T10:25:07;5.20;;;3.10;;
23129;SDS011;11734;51.046;13.778;2024-01-16T10:27:37;5.30;;;2.90;;
23129;SDS011;11734;51.046;13.778;2024-01-16T10:30:04;5.93;;;3.47;;
23129;SDS011;11734;51.046;13.778;2024-01-16T10:32:37;4.30;;;2.80;;
23129;SDS011;11734;51.046;13.778;2024-01-16T10:40:18;4.70;;;2.97;;
23129;SDS011;11734;51.046;13.778;2024-01-16T10:43:02;3.23;;;2.60;;
23129;SDS011;11734;51.046;13.778;2024-01-16T10:45:30;4.60;;;3.00;;
23129;SDS011;11734;51.046;13.778;2024-01-16T10:48:05;4.63;;;2.80;;
23129;SDS011;11734;51.046;13.778;2024-01-16T10:50:37;6.77;;;3.23;;
23129;SDS011;11734;51.046;13.778;2024-01-16T10:53:06;5.53;;;2.80;;
23129;SDS011;11734;51.046;13.778;2024-01-16T10:55:39;4.50;;;2.60;;
23129;SDS011;11734;51.046;13.778;2024-01-16T10:58:10;4.07;;;2.80;;
23129;SDS011;11734;51.046;13.778;2024-01-16T11:00:40;5.57;;;2.60;;
23129;SDS011;11734;51.046;13.778;2024-01-16T11:03:09;4.63;;;2.77;;
23129;SDS011;11734;51.046;13.778;2024-01-16T11:05:38;5.27;;;2.93;;
23129;SDS011;11734;51.046;13.778;2024-01-16T11:08:06;7.47;;;3.17;;
23129;SDS011;11734;51.046;13.778;2024-01-16T11:10:36;6.17;;;3.30;;
23129;SDS011;11734;51.046;13.778;2024-01-16T11:13:04;2.80;;;2.40;;
23129;SDS011;11734;51.046;13.778;2024-01-16T11:15:32;5.53;;;2.70;;
23129;SDS011;11734;51.046;13.778;2024-01-16T11:17:59;6.73;;;2.80;;
23129;SDS011;11734;51.046;13.778;2024-01-16T11:20:27;3.50;;;2.53;;
23129;SDS011;11734;51.046;13.778;2024-01-16T11:23:14;5.57;;;2.97;;
23129;SDS011;11734;51.046;13.778;2024-01-16T11:25:42;5.57;;;3.13;;
23129;SDS011;11734;51.046;13.778;2024-01-16T11:28:11;3.43;;;2.50;;
23129;SDS011;11734;51.046;13.778;2024-01-16T11:30:40;6.57;;;2.80;;
23129;SDS011;11734;51.046;13.778;2024-01-16T11:33:41;3.70;;;2.50;;
23129;SDS011;11734;51.046;13.778;2024-01-16T11:35:55;3.43;;;2.63;;
23129;SDS011;11734;51.046;13.778;2024-01-16T11:38:23;4.10;;;3.00;;
23129;SDS011;11734;51.046;13.778;2024-01-16T11:40:53;5.90;;;3.07;;
23129;SDS011;11734;51.046;13.778;2024-01-16T11:43:34;3.50;;;2.60;;
23129;SDS011;11734;51.046;13.778;2024-01-16T11:46:03;4.10;;;3.20;;
23129;SDS011;11734;51.046;13.778;2024-01-16T11:48:31;3.97;;;2.40;;
23129;SDS011;11734;51.046;13.778;2024-01-16T11:50:58;6.60;;;2.77;;
23129;SDS011;11734;51.046;13.778;2024-01-16T11:53:36;4.20;;;2.57;;
23129;SDS011;11734;51.046;13.778;2024-01-16T12:01:24;4.87;;;2.60;;
23129;SDS011;11734;51.046;13.778;2024-01-16T12:04:05;4.10;;;2.90;;
23129;SDS011;11734;51.046;13.778;2024-01-16T12:06:34;5.97;;;3.13;;
23129;SDS011;11734;51.046;13.778;2024-01-16T12:09:12;5.07;;;2.67;;
23129;SDS011;11734;51.046;13.778;2024-01-16T12:11:40;4.40;;;2.70;;
23129;SDS011;11734;51.046;13.778;2024-01-16T12:14:11;3.73;;;2.60;;
23129;SDS011;11734;51.046;13.778;2024-01-16T12:16:39;5.53;;;2.90;;
23129;SDS011;11734;51.046;13.778;2024-01-16T12:19:07;3.07;;;2.60;;
23129;SDS011;11734;51.046;13.778;2024-01-16T12:21:38;4.37;;;2.60;;
23129;SDS011;11734;51.046;13.778;2024-01-16T12:24:06;3.73;;;2.33;;
23129;SDS011;11734;51.046;13.778;2024-01-16T12:26:38;3.97;;;2.67;;
23129;SDS011;11734;51.046;13.778;2024-01-16T12:29:10;4.60;;;2.30;;
23129;SDS011;11734;51.046;13.778;2024-01-16T12:31:38;3.97;;;2.50;;
23129;SDS011;11734;51.046;13.778;2024-01-16T12:36:35;3.13;;;2.40;;
23129;SDS011;11734;51.046;13.778;2024-01-16T12:39:04;4.50;;;2.50;;
23129;SDS011;11734;51.046;13.778;2024-01-16T12:41:36;4.73;;;2.90;;
23129;SDS011;11734;51.046;13.778;2024-01-16T12:44:08;5.27;;;2.87;;
23129;SDS011;11734;51.046;13.778;2024-01-16T12:46:55;4.37;;;2.57;;
23129;SDS011;11734;51.046;13.778;2024-01-16T12:49:23;3.93;;;2.87;;
23129;SDS011;11734;51.046;13.778;2024-01-16T12:51:51;4.33;;;2.60;;
23129;SDS011;11734;51.046;13.778;2024-01-16T12:54:20;4.03;;;2.50;;
23129;SDS011;11734;51.046;13.778;2024-01-16T12:56:57;2.93;;;2.43;;
23129;SDS011;11734;51.046;13.778;2024-01-16T12:59:27;4.50;;;2.20;;
23129;SDS011;11734;51.046;13.778;2024-01-16T13:01:56;3.67;;;2.80;;
23129;SDS011;11734;51.046;13.778;2024-01-16T13:04:23;4.63;;;2.73;;
23129;SDS011;11734;51.046;13.778;2024-01-16T13:06:51;5.67;;;2.90;;
23129;SDS011;11734;51.046;13.778;2024-01-16T13:09:27;3.80;;;2.80;;
23129;SDS011;11734;51.046;13.778;2024-01-16T13:11:55;4.30;;;2.63;;
23129;SDS011;11734;51.046;13.778;2024-01-16T13:14:25;3.73;;;2.60;;
23129;SDS011;11734;51.046;13.778;2024-01-16T13:16:53;3.40;;;2.60;;
23129;SDS011;11734;51.046;13.778;2024-01-16T13:19:23;3.77;;;2.37;;
23129;SDS011;11734;51.046;13.778;2024-01-16T13:21:52;3.50;;;2.43;;
23129;SDS011;11734;51.046;13.778;2024-01-16T13:24:20;3.97;;;2.40;;
23129;SDS011;11734;51.046;13.778;2024-01-16T13:26:50;4.87;;;2.83;;
23129;SDS011;11734;51.046;13.778;2024-01-16T13:29:18;3.57;;;2.77;;
23129;SDS011;11734;51.046;13.778;2024-01-16T13:31:46;4.17;;;2.50;;
23129;SDS011;11734;51.046;13.778;2024-01-16T13:34:14;5.57;;;2.70;;
23129;SDS011;11734;51.046;13.778;2024-01-16T13:36:44;5.07;;;3.13;;
23129;SDS011;11734;51.046;13.778;2024-01-16T13:39:32;4.93;;;2.40;;
23129;SDS011;11734;51.046;13.778;2024-01-16T13:42:05;4.03;;;2.40;;
23129;SDS011;11734;51.046;13.778;2024-01-16T13:44:33;4.73;;;2.60;;
23129;SDS011;11734;51.046;13.778;2024-01-16T13:47:01;6.30;;;2.50;;
23129;SDS011;11734;51.046;13.778;2024-01-16T13:49:37;4.43;;;2.63;;
23129;SDS011;11734;51.046;13.778;2024-01-16T13:52:07;4.20;;;2.90;;
23129;SDS011;11734;51.046;13.778;2024-01-16T13:54:36;6.30;;;2.70;;
23129;SDS011;11734;51.046;13.778;2024-01-16T13:57:05;3.60;;;2.60;;
23129;SDS011;11734;51.046;13.778;2024-01-16T13:59:36;4.90;;;2.43;;
23129;SDS011;11734;51.046;13.778;2024-01-16T14:02:05;4.10;;;2.70;;
23129;SDS011;11734;51.046;13.778;2024-01-16T14:04:35;2.93;;;2.60;;
23129;SDS011;11734;51.046;13.778;2024-01-16T14:07:02;5.17;;;2.70;;
23129;SDS011;11734;51.046;13.778;2024-01-16T14:09:39;6.23;;;2.93;;
23129;SDS011;11734;51.046;13.778;2024-01-16T14:12:12;4.77;;;2.90;;
23129;SDS011;11734;51.046;13.778;2024-01-16T14:14:40;3.37;;;2.40;;
23129;SDS011;11734;51.046;13.778;2024-01-16T14:17:09;4.83;;;2.97;;
23129;SDS011;11734;51.046;13.778;2024-01-16T14:19:36;3.20;;;2.77;;
23129;SDS011;11734;51.046;13.778;2024-01-16T14:22:05;5.30;;;2.60;;
23129;SDS011;11734;51.046;13.778;2024-01-16T14:24:32;4.37;;;2.70;;
23129;SDS011;11734;51.046;13.778;2024-01-16T14:27:00;5.90;;;2.63;;
23129;SDS011;11734;51.046;13.778;2024-01-16T14:29:28;6.53;;;3.10;;
23129;SDS011;11734;51.046;13.778;2024-01-16T14:31:56;4.40;;;2.60;;
23129;SDS011;11734;51.046;13.778;2024-01-16T14:34:24;2.93;;;2.43;;
23129;SDS011;11734;51.046;13.778;2024-01-16T14:36:52;4.17;;;2.77;;
23129;SDS011;11734;51.046;13.778;2024-01-16T14:39:20;4.93;;;2.53;;
23129;SDS011;11734;51.046;13.778;2024-01-16T14:41:57;5.37;;;2.77;;
23129;SDS011;11734;51.046;13.778;2024-01-16T14:44:25;3.47;;;2.77;;
23129;SDS011;11734;51.046;13.778;2024-01-16T14:46:53;5.90;;;2.60;;
23129;SDS011;11734;51.046;13.778;2024-01-16T14:49:20;2.93;;;2.53;;
23129;SDS011;11734;51.046;13.778;2024-01-16T14:51:48;4.40;;;2.60;;
23129;SDS011;11734;51.046;13.778;2024-01-16T14:54:17;4.57;;;3.10;;